Time,TemperatureF,DewpointF,PressureIn,WindDirection,WindDirectionDegrees,WindSpeedMPH,WindSpeedGustMPH,Humidity,HourlyPrecipIn,Conditions,Clouds,dailyrainin,SoftwareType,DateUTC
2013-08-18 00:00:00,86.0,74.0,30.12,South,190,9.0,-999.0,66,-99.99,,,-99.99,,2013-08-18 00:00:00,
2013-08-18 00:41:00,86.0,74.0,30.12,South,190,9.0,-999.0,66,-99.99,,,-99.99,,2013-08-18 00:41:00,
2013-08-18 00:51:00,86.0,74.0,30.12,South,190,9.0,-999.0,66,-99.99,,,-99.99,,2013-08-18 00:51:00,
2013-08-18 01:00:00,84.0,73.0,30.14,South,180,13.0,-999.0,70,-99.99,,,-99.99,,2013-08-18 01:00:00,
2013-08-18 01:41:00,84.0,73.0,30.14,South,180,13.0,-999.0,70,-99.99,,,-99.99,,2013-08-18 01:41:00,
2013-08-18 01:52:00,84.0,73.0,30.14,South,180,13.0,-999.0,70,-99.99,,,-99.99,,2013-08-18 01:52:00,
2013-08-18 02:00:00,85.0,75.0,30.16,SSW,200,13.0,-999.0,72,-99.99,,,-99.99,,2013-08-18 02:00:00,
2013-08-18 02:41:00,85.0,75.0,30.16,SSW,200,13.0,-999.0,72,-99.99,,,-99.99,,2013-08-18 02:41:00,
2013-08-18 02:52:00,85.0,75.0,30.16,SSW,200,13.0,-999.0,72,-99.99,,,-99.99,,2013-08-18 02:52:00,
2013-08-18 05:00:00,87.0,77.0,30.15,SSW,210,14.0,-999.0,72,-99.99,,,-99.99,,2013-08-18 05:00:00,
2013-08-18 05:42:00,87.0,77.0,30.15,SSW,210,14.0,-999.0,72,-99.99,,,-99.99,,2013-08-18 05:42:00,
2013-08-18 05:51:00,87.0,77.0,30.15,SSW,210,14.0,-999.0,72,-99.99,,,-99.99,,2013-08-18 05:51:00,
2013-08-18 06:00:00,86.0,76.0,30.14,WSW,240,14.0,-999.0,72,-99.99,,,-99.99,,2013-08-18 06:00:00,
2013-08-18 06:41:00,86.0,76.0,30.14,WSW,240,14.0,-999.0,72,-99.99,,,-99.99,,2013-08-18 06:41:00,
2013-08-18 06:52:00,86.0,76.0,30.14,WSW,240,14.0,-999.0,72,-99.99,,,-99.99,,2013-08-18 06:52:00,
2013-08-18 07:00:00,85.0,76.0,30.13,WSW,240,14.0,-999.0,73,-99.99,,,-99.99,,2013-08-18 07:00:00,
2013-08-18 07:41:00,85.0,76.0,30.13,WSW,240,14.0,-999.0,73,-99.99,,,-99.99,,2013-08-18 07:41:00,
2013-08-18 07:52:00,85.0,76.0,30.13,WSW,240,14.0,-999.0,73,-99.99,,,-99.99,,2013-08-18 07:52:00,
2013-08-18 08:00:00,86.0,76.0,30.12,WSW,250,15.0,-999.0,72,-99.99,,,-99.99,,2013-08-18 08:00:00,
2013-08-18 08:41:00,86.0,76.0,30.12,WSW,250,15.0,-999.0,72,-99.99,,,-99.99,,2013-08-18 08:41:00,
2013-08-18 08:52:00,86.0,76.0,30.12,WSW,250,15.0,-999.0,72,-99.99,,,-99.99,,2013-08-18 08:52:00,
2013-08-18 09:00:00,85.0,76.0,30.12,West,260,17.0,-999.0,74,-99.99,,,-99.99,,2013-08-18 09:00:00,
2013-08-18 09:42:00,85.0,76.0,30.12,West,260,17.0,-999.0,74,-99.99,,,-99.99,,2013-08-18 09:42:00,
2013-08-18 09:53:00,85.0,76.0,30.12,West,260,17.0,-999.0,74,-99.99,,,-99.99,,2013-08-18 09:53:00,
2013-08-18 10:00:00,83.0,76.0,30.13,West,260,14.0,-999.0,78,-99.99,,,-99.99,,2013-08-18 10:00:00,
2013-08-18 10:42:00,83.0,76.0,30.13,West,260,14.0,-999.0,78,-99.99,,,-99.99,,2013-08-18 10:42:00,
2013-08-18 10:52:00,83.0,76.0,30.13,West,260,14.0,-999.0,78,-99.99,,,-99.99,,2013-08-18 10:52:00,
2013-08-18 11:00:00,80.0,74.0,30.15,West,280,14.0,-999.0,82,-99.99,,,-99.99,,2013-08-18 11:00:00,
2013-08-18 11:42:00,80.0,74.0,30.15,West,280,14.0,-999.0,82,-99.99,,,-99.99,,2013-08-18 11:42:00,
2013-08-18 11:51:00,80.0,74.0,30.15,West,280,14.0,-999.0,82,-99.99,,,-99.99,,2013-08-18 11:51:00,
2013-08-18 12:00:00,78.0,74.0,30.16,WNW,290,8.0,-999.0,85,-99.99,,,-99.99,,2013-08-18 12:00:00,
2013-08-18 12:41:00,78.0,74.0,30.16,WNW,290,8.0,-999.0,85,-99.99,,,-99.99,,2013-08-18 12:41:00,
2013-08-18 12:52:00,78.0,74.0,30.16,WNW,290,8.0,-999.0,85,-99.99,,,-99.99,,2013-08-18 12:52:00,
2013-08-18 13:00:00,78.0,72.0,30.18,WNW,290,9.0,-999.0,81,-99.99,,,-99.99,,2013-08-18 13:00:00,
2013-08-18 13:42:00,78.0,72.0,30.18,WNW,290,9.0,-999.0,81,-99.99,,,-99.99,,2013-08-18 13:42:00,
2013-08-18 13:52:00,78.0,72.0,30.18,WNW,290,9.0,-999.0,81,-99.99,,,-99.99,,2013-08-18 13:52:00,
2013-08-18 14:00:00,78.0,73.0,30.18,WSW,240,5.0,-999.0,83,-99.99,,,-99.99,,2013-08-18 14:00:00,
2013-08-18 14:42:00,78.0,73.0,30.18,WSW,240,5.0,-999.0,83,-99.99,,,-99.99,,2013-08-18 14:42:00,
2013-08-18 14:53:00,78.0,73.0,30.18,WSW,240,5.0,-999.0,83,-99.99,,,-99.99,,2013-08-18 14:53:00,
2013-08-18 15:00:00,79.0,73.0,30.19,SW,230,7.0,-999.0,81,-99.99,,,-99.99,,2013-08-18 15:00:00,
2013-08-18 15:43:00,79.0,73.0,30.19,SW,230,7.0,-999.0,81,-99.99,,,-99.99,,2013-08-18 15:43:00,
2013-08-18 15:53:00,79.0,73.0,30.19,SW,230,7.0,-999.0,81,-99.99,,,-99.99,,2013-08-18 15:53:00,
2013-08-18 16:00:00,82.0,73.0,30.19,SW,230,8.0,-999.0,73,-99.99,,,-99.99,,2013-08-18 16:00:00,
2013-08-18 16:42:00,82.0,73.0,30.19,SW,230,8.0,-999.0,73,-99.99,,,-99.99,,2013-08-18 16:42:00,
2013-08-18 16:52:00,82.0,73.0,30.19,SW,230,8.0,-999.0,73,-99.99,,,-99.99,,2013-08-18 16:52:00,
2013-08-18 17:00:00,82.0,73.0,30.19,SW,220,9.0,-999.0,74,-99.99,,,-99.99,,2013-08-18 17:00:00,
2013-08-18 17:42:00,82.0,73.0,30.19,SW,220,9.0,-999.0,74,-99.99,,,-99.99,,2013-08-18 17:42:00,
2013-08-18 17:51:00,82.0,73.0,30.19,SW,220,9.0,-999.0,74,-99.99,,,-99.99,,2013-08-18 17:51:00,
2013-08-18 18:00:00,84.0,74.0,30.17,SW,220,9.0,-999.0,72,-99.99,,,-99.99,,2013-08-18 18:00:00,
2013-08-18 18:42:00,84.0,74.0,30.17,SW,220,9.0,-999.0,72,-99.99,,,-99.99,,2013-08-18 18:42:00,
2013-08-18 18:52:00,84.0,74.0,30.17,SW,220,9.0,-999.0,72,-99.99,,,-99.99,,2013-08-18 18:52:00,
2013-08-18 19:00:00,84.0,74.0,30.16,SW,220,7.0,-999.0,73,-99.99,,,-99.99,,2013-08-18 19:00:00,
2013-08-18 19:41:00,84.0,74.0,30.16,SW,220,7.0,-999.0,73,-99.99,,,-99.99,,2013-08-18 19:41:00,
2013-08-18 19:52:00,84.0,74.0,30.16,SW,220,7.0,-999.0,73,-99.99,,,-99.99,,2013-08-18 19:52:00,
2013-08-18 20:00:00,86.0,74.0,30.14,SW,220,9.0,-999.0,68,-99.99,,,-99.99,,2013-08-18 20:00:00,
2013-08-18 20:42:00,86.0,74.0,30.14,SW,220,9.0,-999.0,68,-99.99,,,-99.99,,2013-08-18 20:42:00,
2013-08-18 20:52:00,86.0,74.0,30.14,SW,220,9.0,-999.0,68,-99.99,,,-99.99,,2013-08-18 20:52:00,
2013-08-18 21:00:00,87.0,74.0,30.14,SSW,200,10.0,-999.0,66,-99.99,,,-99.99,,2013-08-18 21:00:00,
2013-08-18 21:42:00,87.0,74.0,30.14,SSW,200,10.0,-999.0,66,-99.99,,,-99.99,,2013-08-18 21:42:00,
2013-08-18 21:53:00,87.0,74.0,30.14,SSW,200,10.0,-999.0,66,-99.99,,,-99.99,,2013-08-18 21:53:00,
2013-08-18 22:00:00,86.0,73.0,30.14,SW,220,9.0,-999.0,66,-99.99,,,-99.99,,2013-08-18 22:00:00,
2013-08-18 22:42:00,86.0,73.0,30.14,SW,220,9.0,-999.0,66,-99.99,,,-99.99,,2013-08-18 22:42:00,
2013-08-18 22:52:00,86.0,73.0,30.14,SW,220,9.0,-999.0,66,-99.99,,,-99.99,,2013-08-18 22:52:00,
2013-08-18 23:00:00,84.0,74.0,30.13,SW,220,9.0,-999.0,71,-99.99,,,-99.99,,2013-08-18 23:00:00,
2013-08-18 23:42:00,84.0,74.0,30.13,SW,220,9.0,-999.0,71,-99.99,,,-99.99,,2013-08-18 23:42:00,
2013-08-18 23:52:00,84.0,74.0,30.13,SW,220,9.0,-999.0,71,-99.99,,,-99.99,,2013-08-18 23:52:00,